sensor_id;sensor_type;location;lat;lon;timestamp;pressure;altitude;pressure_sealevel;temperature;humidity
43621;BME280;29213;50.770;7.298;2023-07-30T00:01:53;100291.28;;;15.50;70.60
43621;BME280;29213;50.770;7.298;2023-07-30T00:04:19;100329.94;;;15.69;70.53
43621;BME280;29213;50.770;7.298;2023-07-30T00:06:44;100326.59;;;15.67;70.45
43621;BME280;29213;50.770;7.298;2023-07-30T00:09:10;100316.69;;;15.61;70.68
43621;BME280;29213;50.770;7.298;2023-07-30T00:11:35;100270.38;;;15.25;70.54
43621;BME280;29213;50.770;7.298;2023-07-30T00:14:00;100299.75;;;15.40;70.57
43621;BME280;29213;50.770;7.298;2023-07-30T00:16:26;100329.88;;;15.56;70.06
43621;BME280;29213;50.770;7.298;2023-07-30T00:18:52;100320.16;;;15.48;70.06
43621;BME280;29213;50.770;7.298;2023-07-30T00:21:17;100247.81;;;14.99;70.23
43621;BME280;29213;50.770;7.298;2023-07-30T00:23:42;100294.09;;;15.21;70.42
43621;BME280;29213;50.770;7.298;2023-07-30T00:26:08;100131.22;;;14.12;69.99
43621;BME280;29213;50.770;7.298;2023-07-30T00:28:33;100333.16;;;15.44;70.16
43621;BME280;29213;50.770;7.298;2023-07-30T00:30:59;100291.19;;;15.09;69.96
43621;BME280;29213;50.770;7.298;2023-07-30T00:33:24;100312.47;;;15.18;69.74
43621;BME280;29213;50.770;7.298;2023-07-30T00:39:37;100238.81;;;14.65;70.30
43621;BME280;29213;50.770;7.298;2023-07-30T00:42:03;100277.66;;;14.89;70.34
43621;BME280;29213;50.770;7.298;2023-07-30T00:44:29;100201.97;;;14.32;70.30
43621;BME280;29213;50.770;7.298;2023-07-30T00:46:54;100339.31;;;15.25;70.35
43621;BME280;29213;50.770;7.298;2023-07-30T00:49:20;100325.44;;;15.14;70.39
43621;BME280;29213;50.770;7.298;2023-07-30T00:51:45;100257.59;;;14.65;70.17
43621;BME280;29213;50.770;7.298;2023-07-30T00:54:11;100355.97;;;15.13;70.13
43621;BME280;29213;50.770;7.298;2023-07-30T00:56:36;100287.50;;;14.75;70.05
43621;BME280;29213;50.770;7.298;2023-07-30T00:59:02;100129.06;;;13.66;69.96
43621;BME280;29213;50.770;7.298;2023-07-30T01:01:30;100312.03;;;14.72;70.06
43621;BME280;29213;50.770;7.298;2023-07-30T01:03:58;100318.09;;;14.88;70.42
43621;BME280;29213;50.770;7.298;2023-07-30T01:06:24;100299.69;;;14.78;70.37
43621;BME280;29213;50.770;7.298;2023-07-30T01:08:49;100326.72;;;14.83;69.95
43621;BME280;29213;50.770;7.298;2023-07-30T01:11:15;100180.50;;;13.96;70.38
43621;BME280;29213;50.770;7.298;2023-07-30T01:13:42;100333.72;;;14.84;70.31
43621;BME280;29213;50.770;7.298;2023-07-30T01:16:07;100294.66;;;14.61;70.10
43621;BME280;29213;50.770;7.298;2023-07-30T01:18:33;100248.94;;;14.27;70.28
43621;BME280;29213;50.770;7.298;2023-07-30T01:20:59;100325.47;;;14.79;69.92
43621;BME280;29213;50.770;7.298;2023-07-30T01:23:25;100300.59;;;14.56;70.03
43621;BME280;29213;50.770;7.298;2023-07-30T01:29:51;100370.03;;;14.87;69.96
43621;BME280;29213;50.770;7.298;2023-07-30T01:32:21;100365.09;;;14.83;69.72
43621;BME280;29213;50.770;7.298;2023-07-30T01:34:53;100348.69;;;14.65;69.92
43621;BME280;29213;50.770;7.298;2023-07-30T01:37:19;100378.06;;;14.80;70.09
43621;BME280;29213;50.770;7.298;2023-07-30T01:39:48;100330.25;;;14.48;70.33
43621;BME280;29213;50.770;7.298;2023-07-30T01:42:14;100315.34;;;14.39;70.17
43621;BME280;29213;50.770;7.298;2023-07-30T01:44:39;100369.34;;;14.71;70.28
43621;BME280;29213;50.770;7.298;2023-07-30T01:47:05;100358.78;;;14.63;70.53
43621;BME280;29213;50.770;7.298;2023-07-30T01:49:30;100327.47;;;14.35;70.41
43621;BME280;29213;50.770;7.298;2023-07-30T01:51:55;100338.06;;;14.50;70.44
43621;BME280;29213;50.770;7.298;2023-07-30T01:54:21;100291.06;;;14.12;70.29
43621;BME280;29213;50.770;7.298;2023-07-30T01:56:46;100339.69;;;14.44;70.70
43621;BME280;29213;50.770;7.298;2023-07-30T01:59:12;100349.25;;;14.53;70.77
43621;BME280;29213;50.770;7.298;2023-07-30T02:01:37;100362.91;;;14.65;70.77
43621;BME280;29213;50.770;7.298;2023-07-30T02:04:02;100398.06;;;14.77;70.80
43621;BME280;29213;50.770;7.298;2023-07-30T02:06:28;100377.72;;;14.61;71.18
43621;BME280;29213;50.770;7.298;2023-07-30T02:08:53;100274.75;;;14.07;71.03
43621;BME280;29213;50.770;7.298;2023-07-30T02:11:19;100316.13;;;14.33;71.03
43621;BME280;29213;50.770;7.298;2023-07-30T02:13:44;100342.19;;;14.46;71.00
43621;BME280;29213;50.770;7.298;2023-07-30T02:16:09;100359.56;;;14.56;71.26
43621;BME280;29213;50.770;7.298;2023-07-30T02:18:35;100307.59;;;14.22;71.14
43621;BME280;29213;50.770;7.298;2023-07-30T02:21:00;100385.69;;;14.76;71.23
43621;BME280;29213;50.770;7.298;2023-07-30T02:23:26;100255.44;;;13.89;71.18
43621;BME280;29213;50.770;7.298;2023-07-30T02:25:52;100352.78;;;14.61;71.34
43621;BME280;29213;50.770;7.298;2023-07-30T02:28:17;100333.25;;;14.38;71.44
43621;BME280;29213;50.770;7.298;2023-07-30T02:30:43;100342.22;;;14.52;71.63
43621;BME280;29213;50.770;7.298;2023-07-30T02:33:08;100356.25;;;14.54;71.45
43621;BME280;29213;50.770;7.298;2023-07-30T02:35:33;100381.78;;;14.79;71.39
43621;BME280;29213;50.770;7.298;2023-07-30T02:37:59;100369.91;;;14.66;71.44
43621;BME280;29213;50.770;7.298;2023-07-30T02:40:24;100274.38;;;14.10;71.76
43621;BME280;29213;50.770;7.298;2023-07-30T02:42:49;100309.13;;;14.32;71.79
43621;BME280;29213;50.770;7.298;2023-07-30T02:45:15;100380.63;;;14.66;72.09
43621;BME280;29213;50.770;7.298;2023-07-30T02:47:40;100346.56;;;14.53;71.91
43621;BME280;29213;50.770;7.298;2023-07-30T02:50:08;100321.53;;;14.39;71.79
43621;BME280;29213;50.770;7.298;2023-07-30T02:52:33;100385.69;;;14.83;71.83
43621;BME280;29213;50.770;7.298;2023-07-30T02:54:59;100380.56;;;14.81;72.07
43621;BME280;29213;50.770;7.298;2023-07-30T02:57:24;100361.06;;;14.66;72.00
43621;BME280;29213;50.770;7.298;2023-07-30T02:59:50;100259.44;;;14.00;72.08
43621;BME280;29213;50.770;7.298;2023-07-30T03:02:15;100339.34;;;14.54;72.06
43621;BME280;29213;50.770;7.298;2023-07-30T03:04:40;100312.22;;;14.35;72.12
43621;BME280;29213;50.770;7.298;2023-07-30T03:07:06;100391.50;;;14.87;72.12
43621;BME280;29213;50.770;7.298;2023-07-30T03:09:32;100328.78;;;14.46;71.94
43621;BME280;29213;50.770;7.298;2023-07-30T03:11:59;100346.41;;;14.62;72.25
43621;BME280;29213;50.770;7.298;2023-07-30T03:14:24;100375.75;;;14.77;72.24
43621;BME280;29213;50.770;7.298;2023-07-30T03:16:50;100357.56;;;14.65;72.25
43621;BME280;29213;50.770;7.298;2023-07-30T03:19:15;100337.25;;;14.49;72.41
43621;BME280;29213;50.770;7.298;2023-07-30T03:21:41;100404.94;;;14.93;72.53
43621;BME280;29213;50.770;7.298;2023-07-30T03:24:06;100372.81;;;14.65;72.29
43621;BME280;29213;50.770;7.298;2023-07-30T03:26:31;100245.16;;;13.93;72.46
43621;BME280;29213;50.770;7.298;2023-07-30T03:28:57;100381.38;;;14.82;72.69
43621;BME280;29213;50.770;7.298;2023-07-30T03:31:22;100289.28;;;14.26;72.33
43621;BME280;29213;50.770;7.298;2023-07-30T03:33:47;100366.66;;;14.71;72.66
43621;BME280;29213;50.770;7.298;2023-07-30T03:36:13;100405.91;;;14.86;72.22
43621;BME280;29213;50.770;7.298;2023-07-30T03:38:39;100330.88;;;14.50;72.51
43621;BME280;29213;50.770;7.298;2023-07-30T03:41:05;100415.91;;;14.99;72.41
43621;BME280;29213;50.770;7.298;2023-07-30T03:43:32;100365.66;;;14.72;72.62
43621;BME280;29213;50.770;7.298;2023-07-30T03:45:57;100394.81;;;14.89;72.99
43621;BME280;29213;50.770;7.298;2023-07-30T03:48:22;100370.16;;;14.72;72.82
43621;BME280;29213;50.770;7.298;2023-07-30T03:50:48;100339.75;;;14.51;73.11
43621;BME280;29213;50.770;7.298;2023-07-30T03:53:13;100346.59;;;14.60;72.91
43621;BME280;29213;50.770;7.298;2023-07-30T03:55:39;100222.44;;;13.82;72.80
43621;BME280;29213;50.770;7.298;2023-07-30T03:58:04;100351.38;;;14.65;72.76
43621;BME280;29213;50.770;7.298;2023-07-30T04:00:29;100407.94;;;15.05;72.88
43621;BME280;29213;50.770;7.298;2023-07-30T04:02:55;100340.00;;;14.63;72.70
43621;BME280;29213;50.770;7.298;2023-07-30T04:05:20;100372.50;;;14.81;72.84
43621;BME280;29213;50.770;7.298;2023-07-30T04:07:45;100407.53;;;15.08;73.01
43621;BME280;29213;50.770;7.298;2023-07-30T04:10:11;100329.66;;;14.53;73.13
43621;BME280;29213;50.770;7.298;2023-07-30T04:12:37;100345.63;;;14.68;73.07
43621;BME280;29213;50.770;7.298;2023-07-30T04:15:02;100342.56;;;14.71;73.28
43621;BME280;29213;50.770;7.298;2023-07-30T04:17:28;100408.97;;;15.11;73.10
43621;BME280;29213;50.770;7.298;2023-07-30T04:19:53;100251.72;;;14.12;73.14
43621;BME280;29213;50.770;7.298;2023-07-30T04:22:18;100323.06;;;14.55;72.96
43621;BME280;29213;50.770;7.298;2023-07-30T04:24:44;100413.31;;;15.12;73.19
43621;BME280;29213;50.770;7.298;2023-07-30T04:27:09;100416.63;;;15.14;73.25
43621;BME280;29213;50.770;7.298;2023-07-30T04:29:34;100285.03;;;14.32;72.91
43621;BME280;29213;50.770;7.298;2023-07-30T04:32:00;100385.13;;;14.88;73.15
43621;BME280;29213;50.770;7.298;2023-07-30T04:34:25;100336.72;;;14.61;73.16
43621;BME280;29213;50.770;7.298;2023-07-30T04:36:51;100328.63;;;14.54;73.28
43621;BME280;29213;50.770;7.298;2023-07-30T04:39:16;100354.28;;;14.70;72.70
43621;BME280;29213;50.770;7.298;2023-07-30T04:41:41;100441.81;;;15.20;72.69
43621;BME280;29213;50.770;7.298;2023-07-30T04:44:07;100394.81;;;14.89;72.31
43621;BME280;29213;50.770;7.298;2023-07-30T04:46:32;100423.75;;;15.00;72.36
43621;BME280;29213;50.770;7.298;2023-07-30T04:49:01;100293.84;;;14.25;72.41
43621;BME280;29213;50.770;7.298;2023-07-30T04:51:27;100439.56;;;15.17;72.57
43621;BME280;29213;50.770;7.298;2023-07-30T04:53:53;100392.69;;;14.77;72.38
43621;BME280;29213;50.770;7.298;2023-07-30T04:56:18;100434.94;;;15.04;72.64
43621;BME280;29213;50.770;7.298;2023-07-30T04:58:43;100407.44;;;14.95;72.43
43621;BME280;29213;50.770;7.298;2023-07-30T05:01:09;100416.88;;;14.91;72.29
43621;BME280;29213;50.770;7.298;2023-07-30T05:03:34;100388.97;;;14.78;72.08
43621;BME280;29213;50.770;7.298;2023-07-30T05:05:59;100442.84;;;15.19;71.48
43621;BME280;29213;50.770;7.298;2023-07-30T05:08:25;100329.59;;;14.46;71.85
43621;BME280;29213;50.770;7.298;2023-07-30T05:10:50;100394.53;;;14.77;71.39
43621;BME280;29213;50.770;7.298;2023-07-30T05:13:16;100446.16;;;15.14;71.30
43621;BME280;29213;50.770;7.298;2023-07-30T05:15:41;100348.00;;;14.56;70.95
43621;BME280;29213;50.770;7.298;2023-07-30T05:18:07;100378.84;;;14.74;70.78
43621;BME280;29213;50.770;7.298;2023-07-30T05:20:32;100448.41;;;15.11;70.77
43621;BME280;29213;50.770;7.298;2023-07-30T05:22:57;100385.63;;;14.69;70.81
43621;BME280;29213;50.770;7.298;2023-07-30T05:25:23;100360.34;;;14.50;70.49
43621;BME280;29213;50.770;7.298;2023-07-30T05:27:48;100441.16;;;15.04;69.87
43621;BME280;29213;50.770;7.298;2023-07-30T05:30:14;100447.31;;;15.05;69.70
43621;BME280;29213;50.770;7.298;2023-07-30T05:32:39;100364.69;;;14.51;70.07
43621;BME280;29213;50.770;7.298;2023-07-30T05:35:05;100409.34;;;14.73;69.83
43621;BME280;29213;50.770;7.298;2023-07-30T05:37:30;100312.47;;;14.12;69.26
43621;BME280;29213;50.770;7.298;2023-07-30T05:39:56;100273.53;;;13.87;68.95
43621;BME280;29213;50.770;7.298;2023-07-30T05:42:22;100432.09;;;14.83;69.07
43621;BME280;29213;50.770;7.298;2023-07-30T05:44:47;100456.72;;;14.94;68.87
43621;BME280;29213;50.770;7.298;2023-07-30T05:47:12;100426.06;;;14.75;69.26
43621;BME280;29213;50.770;7.298;2023-07-30T05:49:38;100410.13;;;14.66;68.98
43621;BME280;29213;50.770;7.298;2023-07-30T05:52:04;100456.28;;;14.90;68.97
43621;BME280;29213;50.770;7.298;2023-07-30T05:54:29;100436.38;;;14.78;68.64
43621;BME280;29213;50.770;7.298;2023-07-30T05:56:54;100465.34;;;14.89;68.90
43621;BME280;29213;50.770;7.298;2023-07-30T05:59:20;100351.09;;;14.24;68.94
43621;BME280;29213;50.770;7.298;2023-07-30T06:01:45;100339.94;;;14.21;68.82
43621;BME280;29213;50.770;7.298;2023-07-30T06:04:11;100392.94;;;14.54;69.90
43621;BME280;29213;50.770;7.298;2023-07-30T06:06:36;100392.34;;;14.59;70.41
43621;BME280;29213;50.770;7.298;2023-07-30T06:09:01;100419.31;;;14.79;70.24
43621;BME280;29213;50.770;7.298;2023-07-30T06:11:27;100318.94;;;14.24;69.96
43621;BME280;29213;50.770;7.298;2023-07-30T06:13:53;100345.72;;;14.53;70.61
43621;BME280;29213;50.770;7.298;2023-07-30T06:16:18;100460.84;;;15.25;69.75
43621;BME280;29213;50.770;7.298;2023-07-30T06:18:45;100408.03;;;14.90;70.35
43621;BME280;29213;50.770;7.298;2023-07-30T06:21:10;100429.41;;;15.12;70.40
43621;BME280;29213;50.770;7.298;2023-07-30T06:23:36;100425.59;;;15.28;69.68
43621;BME280;29213;50.770;7.298;2023-07-30T06:26:01;100414.66;;;15.30;68.56
43621;BME280;29213;50.770;7.298;2023-07-30T06:28:27;100351.13;;;14.95;69.30
43621;BME280;29213;50.770;7.298;2023-07-30T06:30:52;100472.84;;;15.78;68.74
43621;BME280;29213;50.770;7.298;2023-07-30T06:33:17;100439.91;;;15.49;68.00
43621;BME280;29213;50.770;7.298;2023-07-30T06:35:43;100458.94;;;15.61;67.28
43621;BME280;29213;50.770;7.298;2023-07-30T06:38:08;100480.06;;;15.77;67.94
43621;BME280;29213;50.770;7.298;2023-07-30T06:40:34;100411.38;;;15.34;67.21
43621;BME280;29213;50.770;7.298;2023-07-30T06:43:00;100410.28;;;15.29;67.17
43621;BME280;29213;50.770;7.298;2023-07-30T06:45:25;100420.59;;;15.25;67.41
43621;BME280;29213;50.770;7.298;2023-07-30T06:47:51;100452.22;;;15.36;67.46
43621;BME280;29213;50.770;7.298;2023-07-30T06:50:16;100408.97;;;15.04;67.53
43621;BME280;29213;50.770;7.298;2023-07-30T06:52:42;100414.69;;;15.01;67.56
43621;BME280;29213;50.770;7.298;2023-07-30T06:55:07;100438.47;;;15.11;67.60
43621;BME280;29213;50.770;7.298;2023-07-30T06:57:33;100501.56;;;15.35;67.55
43621;BME280;29213;50.770;7.298;2023-07-30T06:59:58;100451.38;;;15.01;67.49
43621;BME280;29213;50.770;7.298;2023-07-30T07:02:24;100519.13;;;15.38;67.93
43621;BME280;29213;50.770;7.298;2023-07-30T07:04:50;100534.59;;;15.36;67.98
43621;BME280;29213;50.770;7.298;2023-07-30T07:07:16;100455.38;;;14.76;68.07
43621;BME280;29213;50.770;7.298;2023-07-30T07:09:41;100468.19;;;14.81;68.39
43621;BME280;29213;50.770;7.298;2023-07-30T07:12:07;100547.34;;;15.27;68.85
43621;BME280;29213;50.770;7.298;2023-07-30T07:14:32;100486.75;;;14.82;69.60
43621;BME280;29213;50.770;7.298;2023-07-30T07:16:58;100521.31;;;14.99;69.37
43621;BME280;29213;50.770;7.298;2023-07-30T07:19:23;100462.50;;;14.69;69.61
43621;BME280;29213;50.770;7.298;2023-07-30T07:21:49;100520.75;;;15.04;69.49
43621;BME280;29213;50.770;7.298;2023-07-30T07:24:16;100537.78;;;15.18;69.68
43621;BME280;29213;50.770;7.298;2023-07-30T07:26:41;100538.63;;;15.18;69.41
43621;BME280;29213;50.770;7.298;2023-07-30T07:29:07;100508.47;;;14.94;69.55
43621;BME280;29213;50.770;7.298;2023-07-30T07:31:32;100481.41;;;14.82;69.87
43621;BME280;29213;50.770;7.298;2023-07-30T07:33:58;100401.00;;;14.32;69.65
43621;BME280;29213;50.770;7.298;2023-07-30T07:36:23;100540.47;;;15.18;69.72
43621;BME280;29213;50.770;7.298;2023-07-30T07:38:49;100490.50;;;14.88;69.93
43621;BME280;29213;50.770;7.298;2023-07-30T07:41:17;100483.91;;;14.91;69.86
43621;BME280;29213;50.770;7.298;2023-07-30T07:43:47;100534.06;;;15.19;70.04
43621;BME280;29213;50.770;7.298;2023-07-30T07:46:13;100473.97;;;14.85;70.30
43621;BME280;29213;50.770;7.298;2023-07-30T07:48:40;100470.44;;;14.84;70.24
43621;BME280;29213;50.770;7.298;2023-07-30T07:51:06;100442.72;;;14.70;70.43
43621;BME280;29213;50.770;7.298;2023-07-30T07:53:32;100514.59;;;15.10;70.42
43621;BME280;29213;50.770;7.298;2023-07-30T07:55:57;100502.84;;;15.11;70.62
43621;BME280;29213;50.770;7.298;2023-07-30T07:58:22;100454.16;;;14.79;70.70
43621;BME280;29213;50.770;7.298;2023-07-30T08:00:48;100482.88;;;14.92;70.56
43621;BME280;29213;50.770;7.298;2023-07-30T08:03:13;100533.94;;;15.27;70.66
43621;BME280;29213;50.770;7.298;2023-07-30T08:05:39;100472.75;;;14.87;70.73
43621;BME280;29213;50.770;7.298;2023-07-30T08:08:04;100536.38;;;15.29;70.95
43621;BME280;29213;50.770;7.298;2023-07-30T08:10:29;100528.81;;;15.32;70.98
43621;BME280;29213;50.770;7.298;2023-07-30T08:12:55;100489.66;;;15.09;70.77
43621;BME280;29213;50.770;7.298;2023-07-30T08:15:20;100440.75;;;14.79;70.75
43621;BME280;29213;50.770;7.298;2023-07-30T08:17:46;100398.91;;;14.56;70.95
43621;BME280;29213;50.770;7.298;2023-07-30T08:20:12;100395.19;;;14.50;71.00
43621;BME280;29213;50.770;7.298;2023-07-30T08:22:37;100499.84;;;15.21;70.88
43621;BME280;29213;50.770;7.298;2023-07-30T08:25:03;100496.50;;;15.19;70.83
43621;BME280;29213;50.770;7.298;2023-07-30T08:27:29;100469.22;;;15.08;71.04
43621;BME280;29213;50.770;7.298;2023-07-30T08:29:54;100495.09;;;15.23;71.22
43621;BME280;29213;50.770;7.298;2023-07-30T08:32:19;100519.97;;;15.39;71.15
43621;BME280;29213;50.770;7.298;2023-07-30T08:34:45;100335.66;;;14.26;71.25
43621;BME280;29213;50.770;7.298;2023-07-30T08:37:10;100518.31;;;15.44;71.72
43621;BME280;29213;50.770;7.298;2023-07-30T08:39:36;100498.50;;;15.39;71.98
43621;BME280;29213;50.770;7.298;2023-07-30T08:42:02;100466.63;;;15.22;71.02
43621;BME280;29213;50.770;7.298;2023-07-30T08:44:28;100518.59;;;15.56;70.96
43621;BME280;29213;50.770;7.298;2023-07-30T08:46:53;100526.47;;;15.65;71.15
43621;BME280;29213;50.770;7.298;2023-07-30T08:49:19;100473.69;;;15.36;71.09
43621;BME280;29213;50.770;7.298;2023-07-30T08:51:45;100512.25;;;15.64;71.01
43621;BME280;29213;50.770;7.298;2023-07-30T08:54:14;100524.25;;;15.75;70.95
43621;BME280;29213;50.770;7.298;2023-07-30T08:56:41;100542.69;;;15.92;70.81
43621;BME280;29213;50.770;7.298;2023-07-30T08:59:07;100534.00;;;15.83;70.70
43621;BME280;29213;50.770;7.298;2023-07-30T09:01:37;100529.44;;;15.76;70.67
43621;BME280;29213;50.770;7.298;2023-07-30T09:04:05;100557.16;;;15.90;70.30
43621;BME280;29213;50.770;7.298;2023-07-30T09:06:32;100520.09;;;15.66;70.45
43621;BME280;29213;50.770;7.298;2023-07-30T09:08:57;100539.38;;;15.83;70.20
43621;BME280;29213;50.770;7.298;2023-07-30T09:11:26;100515.34;;;15.68;70.27
43621;BME280;29213;50.770;7.298;2023-07-30T09:13:53;100567.16;;;16.03;69.73
43621;BME280;29213;50.770;7.298;2023-07-30T09:16:24;100520.38;;;15.84;69.79
43621;BME280;29213;50.770;7.298;2023-07-30T09:18:50;100537.31;;;15.92;69.79
43621;BME280;29213;50.770;7.298;2023-07-30T09:21:15;100535.28;;;15.94;70.24
43621;BME280;29213;50.770;7.298;2023-07-30T09:23:45;100580.69;;;16.37;70.49
43621;BME280;29213;50.770;7.298;2023-07-30T09:26:12;100564.59;;;16.58;70.20
43621;BME280;29213;50.770;7.298;2023-07-30T09:28:39;100575.38;;;16.71;69.86
43621;BME280;29213;50.770;7.298;2023-07-30T09:31:06;100554.06;;;16.63;69.32
43621;BME280;29213;50.770;7.298;2023-07-30T09:33:33;100574.81;;;16.89;69.22
43621;BME280;29213;50.770;7.298;2023-07-30T09:36:01;100530.91;;;16.68;68.96
43621;BME280;29213;50.770;7.298;2023-07-30T09:38:27;100524.09;;;16.66;68.46
43621;BME280;29213;50.770;7.298;2023-07-30T09:41:00;100576.88;;;16.94;68.68
43621;BME280;29213;50.770;7.298;2023-07-30T09:43:32;100573.97;;;16.89;68.71
43621;BME280;29213;50.770;7.298;2023-07-30T09:46:05;100549.53;;;16.70;68.49
43621;BME280;29213;50.770;7.298;2023-07-30T09:48:32;100590.34;;;17.01;69.05
43621;BME280;29213;50.770;7.298;2023-07-30T09:51:04;100583.28;;;17.20;67.89
43621;BME280;29213;50.770;7.298;2023-07-30T09:53:32;100563.56;;;17.46;67.01
43621;BME280;29213;50.770;7.298;2023-07-30T09:56:01;100545.97;;;17.51;64.94
43621;BME280;29213;50.770;7.298;2023-07-30T09:58:26;100549.84;;;17.61;65.42
43621;BME280;29213;50.770;7.298;2023-07-30T10:00:52;100522.78;;;17.43;61.34
43621;BME280;29213;50.770;7.298;2023-07-30T10:03:19;100558.78;;;17.62;61.58
43621;BME280;29213;50.770;7.298;2023-07-30T10:05:46;100528.59;;;17.40;60.54
43621;BME280;29213;50.770;7.298;2023-07-30T10:08:17;100565.63;;;17.58;57.58
43621;BME280;29213;50.770;7.298;2023-07-30T10:10:44;100566.88;;;17.48;57.98
43621;BME280;29213;50.770;7.298;2023-07-30T10:13:12;100510.44;;;17.08;59.02
43621;BME280;29213;50.770;7.298;2023-07-30T10:15:38;100584.06;;;17.47;59.83
43621;BME280;29213;50.770;7.298;2023-07-30T10:18:04;100571.25;;;17.29;60.51
43621;BME280;29213;50.770;7.298;2023-07-30T10:20:30;100583.03;;;17.48;61.46
43621;BME280;29213;50.770;7.298;2023-07-30T10:22:57;100583.59;;;17.78;61.14
43621;BME280;29213;50.770;7.298;2023-07-30T10:25:29;100546.31;;;17.68;61.26
43621;BME280;29213;50.770;7.298;2023-07-30T10:27:56;100552.03;;;17.92;60.07
43621;BME280;29213;50.770;7.298;2023-07-30T10:30:21;100575.97;;;18.20;58.09
43621;BME280;29213;50.770;7.298;2023-07-30T10:35:42;100572.44;;;18.20;59.27
43621;BME280;29213;50.770;7.298;2023-07-30T10:41:06;100570.94;;;18.31;56.30
43621;BME280;29213;50.770;7.298;2023-07-30T10:46:02;100541.94;;;18.26;55.89
43621;BME280;29213;50.770;7.298;2023-07-30T10:48:36;100529.56;;;18.18;56.21
43621;BME280;29213;50.770;7.298;2023-07-30T10:51:06;100571.72;;;18.38;56.54
43621;BME280;29213;50.770;7.298;2023-07-30T10:53:32;100570.53;;;18.27;52.98
43621;BME280;29213;50.770;7.298;2023-07-30T10:56:01;100535.44;;;18.01;55.26
43621;BME280;29213;50.770;7.298;2023-07-30T10:58:31;100529.88;;;17.96;54.70
43621;BME280;29213;50.770;7.298;2023-07-30T11:00:58;100550.94;;;18.13;54.52
43621;BME280;29213;50.770;7.298;2023-07-30T11:03:25;100545.03;;;18.29;55.19
43621;BME280;29213;50.770;7.298;2023-07-30T11:05:51;100568.09;;;18.58;55.15
43621;BME280;29213;50.770;7.298;2023-07-30T11:08:17;100557.16;;;18.46;56.33
43621;BME280;29213;50.770;7.298;2023-07-30T11:10:45;100561.66;;;18.52;53.91
43621;BME280;29213;50.770;7.298;2023-07-30T11:13:14;100576.78;;;18.60;54.81
43621;BME280;29213;50.770;7.298;2023-07-30T11:15:41;100537.44;;;18.45;55.25
43621;BME280;29213;50.770;7.298;2023-07-30T11:18:07;100508.38;;;18.22;51.48
43621;BME280;29213;50.770;7.298;2023-07-30T11:20:32;100572.28;;;18.53;50.78
43621;BME280;29213;50.770;7.298;2023-07-30T11:22:58;100483.44;;;17.94;53.76
43621;BME280;29213;50.770;7.298;2023-07-30T11:25:23;100562.25;;;18.61;49.36
43621;BME280;29213;50.770;7.298;2023-07-30T11:27:50;100564.22;;;18.79;51.09
43621;BME280;29213;50.770;7.298;2023-07-30T11:30:15;100499.94;;;18.43;51.94
43621;BME280;29213;50.770;7.298;2023-07-30T11:32:43;100549.28;;;18.76;50.76
43621;BME280;29213;50.770;7.298;2023-07-30T11:35:14;100536.69;;;18.70;49.17
43621;BME280;29213;50.770;7.298;2023-07-30T11:37:41;100528.59;;;18.70;50.25
43621;BME280;29213;50.770;7.298;2023-07-30T11:40:11;100545.13;;;18.80;48.32
43621;BME280;29213;50.770;7.298;2023-07-30T11:42:36;100499.31;;;18.74;48.14
43621;BME280;29213;50.770;7.298;2023-07-30T11:45:18;100571.94;;;19.45;47.92
43621;BME280;29213;50.770;7.298;2023-07-30T11:47:45;100560.38;;;19.56;48.81
43621;BME280;29213;50.770;7.298;2023-07-30T11:50:10;100573.59;;;19.65;49.25
43621;BME280;29213;50.770;7.298;2023-07-30T11:52:36;100559.44;;;19.51;49.41
43621;BME280;29213;50.770;7.298;2023-07-30T11:55:05;100540.00;;;19.42;49.63
43621;BME280;29213;50.770;7.298;2023-07-30T11:57:36;100557.38;;;19.46;50.29
43621;BME280;29213;50.770;7.298;2023-07-30T12:00:02;100524.75;;;19.47;48.82
43621;BME280;29213;50.770;7.298;2023-07-30T12:02:29;100570.44;;;19.86;50.04
43621;BME280;29213;50.770;7.298;2023-07-30T12:04:55;100544.78;;;19.77;46.65
43621;BME280;29213;50.770;7.298;2023-07-30T12:07:23;100572.25;;;19.93;48.97
43621;BME280;29213;50.770;7.298;2023-07-30T12:09:52;100575.53;;;19.95;48.53
43621;BME280;29213;50.770;7.298;2023-07-30T12:12:17;100569.47;;;19.81;50.56
43621;BME280;29213;50.770;7.298;2023-07-30T12:14:53;100524.00;;;19.59;51.32
43621;BME280;29213;50.770;7.298;2023-07-30T12:17:19;100559.16;;;19.89;49.56
43621;BME280;29213;50.770;7.298;2023-07-30T12:19:45;100554.81;;;19.88;49.03
43621;BME280;29213;50.770;7.298;2023-07-30T12:22:10;100497.69;;;19.54;46.04
43621;BME280;29213;50.770;7.298;2023-07-30T12:24:35;100575.44;;;20.01;46.96
43621;BME280;29213;50.770;7.298;2023-07-30T12:27:01;100553.41;;;19.86;47.96
43621;BME280;29213;50.770;7.298;2023-07-30T12:29:27;100558.50;;;19.94;47.00
43621;BME280;29213;50.770;7.298;2023-07-30T12:31:52;100581.41;;;20.10;47.18
43621;BME280;29213;50.770;7.298;2023-07-30T12:34:19;100570.41;;;20.05;47.98
43621;BME280;29213;50.770;7.298;2023-07-30T12:36:44;100542.44;;;19.81;45.16
43621;BME280;29213;50.770;7.298;2023-07-30T12:39:10;100576.94;;;19.97;46.92
43621;BME280;29213;50.770;7.298;2023-07-30T12:41:35;100574.09;;;19.92;45.98
43621;BME280;29213;50.770;7.298;2023-07-30T12:44:01;100542.16;;;19.70;44.75
43621;BME280;29213;50.770;7.298;2023-07-30T12:46:28;100564.59;;;19.71;45.20
43621;BME280;29213;50.770;7.298;2023-07-30T12:48:55;100554.56;;;19.59;44.83
43621;BME280;29213;50.770;7.298;2023-07-30T12:51:21;100539.91;;;19.48;45.90
43621;BME280;29213;50.770;7.298;2023-07-30T12:53:47;100522.81;;;19.36;42.91
43621;BME280;29213;50.770;7.298;2023-07-30T12:56:12;100573.47;;;19.59;43.67
43621;BME280;29213;50.770;7.298;2023-07-30T12:58:40;100593.25;;;19.72;45.76
43621;BME280;29213;50.770;7.298;2023-07-30T13:01:05;100566.25;;;19.53;44.69